createdAt,value
2022-08-11T00:06:14.978Z,100
2022-08-11T00:16:15.997Z,100
2022-08-11T00:26:16.512Z,100
2022-08-11T00:36:18.179Z,100
2022-08-11T00:46:17.275Z,100
2022-08-11T00:56:17.705Z,100
2022-08-11T01:06:18.699Z,100
2022-08-11T01:16:18.947Z,100
2022-08-11T01:26:19.700Z,100
2022-08-11T01:36:20.071Z,100
2022-08-11T01:56:21.550Z,100
2022-08-11T02:16:22.468Z,100
2022-08-11T02:26:23.351Z,100
2022-08-11T02:36:23.696Z,100
2022-08-11T02:46:24.019Z,100
2022-08-11T02:56:24.370Z,100
2022-08-11T03:16:26.165Z,100
2022-08-11T03:36:27.147Z,100
2022-08-11T03:46:27.863Z,100
2022-08-11T03:56:28.126Z,100
2022-08-11T04:06:29.071Z,100
2022-08-11T04:16:30.092Z,100
2022-08-11T04:26:30.186Z,100
2022-08-11T04:36:30.281Z,100
2022-08-11T04:46:30.387Z,100
2022-08-11T04:56:31.329Z,100
2022-08-11T05:06:31.643Z,100
2022-08-11T05:16:31.708Z,100
2022-08-11T05:26:45.727Z,100
2022-08-11T05:36:32.696Z,100
2022-08-11T05:46:32.947Z,100
2022-08-11T05:56:33.290Z,100
2022-08-11T06:06:33.875Z,100
2022-08-11T06:16:34.608Z,100
2022-08-11T06:26:44.727Z,100
2022-08-11T06:36:35.463Z,100
2022-08-11T06:46:35.653Z,98
2022-08-11T06:56:36.458Z,97
2022-08-11T07:06:50.143Z,95
2022-08-11T07:16:37.619Z,93
2022-08-11T07:26:37.849Z,92
2022-08-11T07:36:38.794Z,91
2022-08-11T07:46:39.043Z,88
2022-08-11T07:56:54.625Z,89
2022-08-11T08:16:41.462Z,85
2022-08-11T08:26:41.926Z,84
2022-08-11T08:36:42.389Z,83
2022-08-11T08:46:43.012Z,83
2022-08-11T08:56:43.208Z,80
2022-08-11T09:16:44.063Z,77
2022-08-11T09:26:45.128Z,76
2022-08-11T09:36:45.964Z,73
2022-08-11T09:56:46.964Z,72
2022-08-11T10:06:47.432Z,72
2022-08-11T10:16:47.913Z,68
2022-08-11T10:26:48.816Z,67
2022-08-11T10:36:48.851Z,66
2022-08-11T10:56:50.307Z,65
2022-08-11T11:06:50.670Z,66
2022-08-11T11:16:50.758Z,67
2022-08-11T11:26:56.990Z,66
2022-08-11T11:36:57.925Z,64
2022-08-11T11:46:58.341Z,65
2022-08-11T11:56:58.545Z,64
2022-08-11T12:06:59.504Z,64
2022-08-11T12:16:59.764Z,64
2022-08-11T12:27:15.565Z,64
2022-08-11T12:37:00.451Z,64
2022-08-11T12:47:01.174Z,63
2022-08-11T13:27:04.073Z,61
2022-08-11T14:07:06.433Z,59
2022-08-11T14:37:08.217Z,57
2022-08-11T14:47:23.574Z,57
2022-08-11T14:57:09.417Z,58
2022-08-11T15:07:16.963Z,57
2022-08-11T15:17:11.065Z,59
2022-08-11T15:27:11.422Z,58
2022-08-11T15:37:11.746Z,57
2022-08-11T15:47:12.327Z,58
2022-08-11T15:57:13.130Z,58
2022-08-11T16:07:13.524Z,58
2022-08-11T16:17:14.470Z,59
2022-08-11T16:27:15.146Z,58
2022-08-11T16:37:15.666Z,59
2022-08-11T16:47:16.577Z,60
2022-08-11T16:57:18.469Z,60
2022-08-11T17:07:23.486Z,60
2022-08-11T17:17:18.637Z,60
2022-08-11T17:27:18.682Z,61
2022-08-11T17:37:19.315Z,62
2022-08-11T17:47:24.538Z,63
2022-08-11T17:57:21.175Z,64
2022-08-11T18:07:21.436Z,65
2022-08-11T18:17:22.454Z,65
2022-08-11T18:27:22.954Z,67
2022-08-11T18:37:26.112Z,69
2022-08-11T18:47:25.846Z,70
2022-08-11T18:57:24.382Z,73
2022-08-11T19:17:43.059Z,78
2022-08-11T19:27:26.713Z,80
2022-08-11T19:37:27.196Z,82
2022-08-11T19:47:27.567Z,82
2022-08-11T19:57:28.486Z,83
2022-08-11T20:27:29.564Z,86
2022-08-11T20:37:30.481Z,88
2022-08-11T21:17:31.890Z,92
2022-08-11T21:37:32.094Z,92
2022-08-11T21:47:42.723Z,93
2022-08-11T21:57:33.994Z,93
2022-08-11T22:07:34.401Z,94
2022-08-11T22:17:34.978Z,96
2022-08-11T22:27:35.285Z,97
2022-08-11T23:27:39.754Z,100
2022-08-11T23:37:39.844Z,100
2022-08-11T23:57:42.330Z,100
